createdAt,value
2019-01-27T00:01:40.709Z,99099.92
2019-01-27T00:04:10.214Z,99104.17
2019-01-27T00:06:39.719Z,99098.86
2019-01-27T00:09:10.456Z,99089.77
2019-01-27T00:11:40.558Z,99080.47
2019-01-27T00:14:10.173Z,99073.93
2019-01-27T00:16:39.721Z,99060.00
2019-01-27T00:19:09.368Z,99062.48
2019-01-27T00:21:39.242Z,99058.22
2019-01-27T00:24:08.715Z,99055.05
2019-01-27T00:26:38.603Z,99053.92
2019-01-27T00:29:08.539Z,99056.41
2019-01-27T00:31:38.648Z,99046.08
2019-01-27T00:34:08.203Z,99042.58
2019-01-27T00:36:37.703Z,99034.16
2019-01-27T00:39:09.896Z,99031.81
2019-01-27T00:41:39.415Z,99029.81
2019-01-27T00:44:28.535Z,99021.66
2019-01-27T00:46:58.003Z,99016.91
2019-01-27T00:49:27.506Z,99012.38
2019-01-27T00:51:57.011Z,99004.90
2019-01-27T00:54:26.547Z,99003.01
2019-01-27T00:56:56.118Z,99001.52
2019-01-27T00:59:25.679Z,98993.20
2019-01-27T01:01:55.167Z,98994.28
2019-01-27T01:04:25.036Z,98995.22
2019-01-27T01:06:55.141Z,98979.65
2019-01-27T01:09:24.583Z,98974.22
2019-01-27T01:11:54.157Z,98966.20
2019-01-27T01:14:23.671Z,98962.53
2019-01-27T01:16:53.183Z,98967.45
2019-01-27T01:19:22.724Z,98959.23
2019-01-27T01:21:52.265Z,98955.71
2019-01-27T01:24:21.753Z,98954.00
2019-01-27T01:26:51.239Z,98942.07
2019-01-27T01:29:20.856Z,98949.41
2019-01-27T01:31:50.453Z,98937.39
2019-01-27T01:34:19.957Z,98929.22
2019-01-27T01:36:49.535Z,98919.66
2019-01-27T01:39:19.044Z,98924.52
2019-01-27T01:41:48.598Z,98914.59
2019-01-27T01:44:18.119Z,98924.28
2019-01-27T01:46:47.597Z,98922.12
2019-01-27T01:49:17.067Z,98915.95
2019-01-27T01:51:46.652Z,98902.05
2019-01-27T01:54:16.335Z,98906.73
2019-01-27T01:56:45.855Z,98903.98
2019-01-27T01:59:15.392Z,98900.92
2019-01-27T02:01:45.031Z,98894.70
2019-01-27T02:04:15.067Z,98901.59
2019-01-27T02:06:44.794Z,98895.00
2019-01-27T02:09:14.238Z,98889.58
2019-01-27T02:11:43.769Z,98889.27
2019-01-27T02:14:13.627Z,98876.74
2019-01-27T02:16:43.359Z,98873.80
2019-01-27T02:19:12.864Z,98863.45
2019-01-27T02:21:43.951Z,98854.27
2019-01-27T02:24:13.561Z,98840.83
2019-01-27T02:26:43.795Z,98846.54
2019-01-27T02:29:13.454Z,98847.89
2019-01-27T02:31:42.958Z,98834.11
2019-01-27T02:34:12.428Z,98831.05
2019-01-27T02:36:42.628Z,98816.64
2019-01-27T02:39:12.122Z,98811.58
2019-01-27T02:41:41.589Z,98808.95
2019-01-27T02:44:11.113Z,98806.48
2019-01-27T02:46:40.616Z,98802.64
2019-01-27T02:49:10.133Z,98796.70
2019-01-27T02:51:39.629Z,98790.82
2019-01-27T02:54:09.162Z,98786.28
2019-01-27T02:56:38.635Z,98776.09
2019-01-27T02:59:08.272Z,98786.19
2019-01-27T03:01:47.230Z,98759.36
2019-01-27T03:04:16.743Z,98768.39
2019-01-27T03:06:47.915Z,98772.14
2019-01-27T03:09:18.840Z,98747.59
2019-01-27T03:11:48.344Z,98760.47
2019-01-27T03:14:18.321Z,98746.34
2019-01-27T03:16:48.543Z,98746.66
2019-01-27T03:19:18.275Z,98741.48
2019-01-27T03:21:47.765Z,98732.25
2019-01-27T03:24:17.231Z,98730.83
2019-01-27T03:26:46.743Z,98726.33
2019-01-27T03:29:16.227Z,98726.23
2019-01-27T03:31:45.729Z,98720.88
2019-01-27T03:34:15.253Z,98710.91
2019-01-27T03:36:44.739Z,98707.88
2019-01-27T03:39:14.205Z,98698.46
2019-01-27T03:41:43.938Z,98693.58
2019-01-27T03:44:13.422Z,98688.07
2019-01-27T03:46:42.921Z,98693.00
2019-01-27T03:49:12.434Z,98673.17
2019-01-27T03:51:41.996Z,98666.81
2019-01-27T03:54:11.533Z,98664.63
2019-01-27T03:56:41.173Z,98672.09
2019-01-27T03:59:10.719Z,98665.66
2019-01-27T04:01:40.201Z,98664.08
2019-01-27T04:04:10.164Z,98657.46
2019-01-27T04:06:39.680Z,98644.84
2019-01-27T04:09:09.348Z,98645.15
2019-01-27T04:11:38.837Z,98642.52
2019-01-27T04:14:08.310Z,98643.67
2019-01-27T04:16:37.904Z,98625.59
2019-01-27T04:19:07.460Z,98637.47
2019-01-27T04:21:37.002Z,98618.77
2019-01-27T04:24:06.611Z,98625.10
2019-01-27T04:26:36.454Z,98619.18
2019-01-27T04:29:06.556Z,98620.38
2019-01-27T04:31:36.041Z,98601.63
2019-01-27T04:34:06.559Z,98604.27
2019-01-27T04:36:36.026Z,98600.92
2019-01-27T04:39:08.479Z,98597.08
2019-01-27T04:41:38.729Z,98597.40
2019-01-27T04:44:08.794Z,98591.78
2019-01-27T04:46:38.305Z,98579.56
2019-01-27T04:49:07.858Z,98586.33
2019-01-27T04:51:37.359Z,98576.82
2019-01-27T04:54:06.964Z,98573.68
2019-01-27T04:56:36.456Z,98584.83
2019-01-27T04:59:06.104Z,98582.89
2019-01-27T05:01:35.660Z,98565.27
2019-01-27T05:04:07.337Z,98566.48
2019-01-27T05:06:36.816Z,98564.56
2019-01-27T05:09:09.962Z,98563.88
2019-01-27T05:11:39.567Z,98559.45
2019-01-27T05:14:09.066Z,98559.13
2019-01-27T05:16:38.672Z,98554.63
2019-01-27T05:19:08.777Z,98558.15
2019-01-27T05:21:38.603Z,98557.72
2019-01-27T05:24:08.212Z,98547.70
2019-01-27T05:26:37.725Z,98545.36
2019-01-27T05:29:07.226Z,98538.52
2019-01-27T05:31:36.765Z,98536.84
2019-01-27T05:34:06.346Z,98531.73
2019-01-27T05:36:35.831Z,98532.91
2019-01-27T05:39:08.014Z,98521.58
2019-01-27T05:41:37.766Z,98524.84
2019-01-27T05:44:07.321Z,98515.88
2019-01-27T05:46:36.826Z,98507.87
2019-01-27T05:49:06.370Z,98511.15
2019-01-27T05:51:35.876Z,98505.91
2019-01-27T05:54:05.684Z,98500.91
2019-01-27T05:56:35.204Z,98504.11
2019-01-27T05:59:04.716Z,98497.58
2019-01-27T06:01:34.262Z,98492.20
2019-01-27T06:04:04.075Z,98496.95
2019-01-27T06:06:33.589Z,98486.90
2019-01-27T06:09:03.936Z,98482.23
2019-01-27T06:11:33.436Z,98477.17
2019-01-27T06:14:02.910Z,98472.83
2019-01-27T06:16:32.386Z,98465.14
2019-01-27T06:19:01.884Z,98471.79
2019-01-27T06:21:31.358Z,98464.81
2019-01-27T06:24:00.845Z,98459.70
2019-01-27T06:26:30.556Z,98461.42
2019-01-27T06:29:00.055Z,98448.83
2019-01-27T06:31:29.564Z,98447.67
2019-01-27T06:33:59.174Z,98440.12
2019-01-27T06:36:28.690Z,98438.27
2019-01-27T06:38:58.178Z,98449.02
2019-01-27T06:41:27.678Z,98445.55
2019-01-27T06:43:57.154Z,98438.44
2019-01-27T06:46:26.660Z,98443.03
2019-01-27T06:48:56.837Z,98432.95
2019-01-27T06:51:26.315Z,98430.08
2019-01-27T06:53:55.786Z,98429.02
2019-01-27T06:56:25.265Z,98431.45
2019-01-27T06:59:02.361Z,98426.77
2019-01-27T07:01:33.552Z,98423.23
2019-01-27T07:04:04.664Z,98422.23
2019-01-27T07:06:48.435Z,98422.16
2019-01-27T07:09:34.251Z,98419.30
2019-01-27T07:12:05.388Z,98408.86
2019-01-27T07:14:52.483Z,98405.09
2019-01-27T07:17:23.666Z,98405.09
2019-01-27T07:19:54.820Z,98395.05
2019-01-27T07:22:40.843Z,98390.75
2019-01-27T07:25:30.253Z,98387.38
2019-01-27T07:28:10.251Z,98382.78
2019-01-27T07:30:41.371Z,98379.33
2019-01-27T07:33:28.343Z,98379.69
2019-01-27T07:35:59.467Z,98378.22
2019-01-27T07:38:30.593Z,98380.80
2019-01-27T07:41:18.365Z,98368.27
2019-01-27T07:43:49.572Z,98376.59
2019-01-27T07:46:20.693Z,98373.68
2019-01-27T07:48:54.812Z,98377.23
2019-01-27T07:51:37.881Z,98378.72
2019-01-27T07:54:17.646Z,98372.41
2019-01-27T07:57:01.908Z,98373.43
2019-01-27T07:59:39.236Z,98380.58
2019-01-27T08:02:10.446Z,98376.38
2019-01-27T08:04:53.772Z,98374.25
2019-01-27T08:07:23.034Z,98372.37
2019-01-27T08:10:03.339Z,98367.27
2019-01-27T08:12:50.231Z,98361.50
2019-01-27T08:15:21.469Z,98356.29
2019-01-27T08:17:52.605Z,98347.20
2019-01-27T08:20:29.465Z,98344.09
2019-01-27T08:23:00.569Z,98353.21
2019-01-27T08:25:31.713Z,98355.07
2019-01-27T08:28:05.324Z,98342.50
2019-01-27T08:30:36.487Z,98347.60
2019-01-27T08:33:10.678Z,98349.96
2019-01-27T08:35:47.765Z,98344.99
2019-01-27T08:38:18.937Z,98333.64
2019-01-27T08:40:50.024Z,98341.51
2019-01-27T08:43:36.926Z,98331.00
2019-01-27T08:46:08.055Z,98327.43
2019-01-27T08:48:37.565Z,98329.89
2019-01-27T08:51:07.480Z,98331.16
2019-01-27T08:53:37.067Z,98314.31
2019-01-27T08:56:06.570Z,98316.77
2019-01-27T08:58:36.055Z,98307.18
2019-01-27T09:01:07.523Z,98305.86
2019-01-27T09:03:41.320Z,98307.58
2019-01-27T09:06:21.430Z,98320.38
2019-01-27T09:08:52.673Z,98309.21
2019-01-27T09:11:23.788Z,98292.05
2019-01-27T09:13:54.947Z,98310.64
2019-01-27T09:16:44.022Z,98305.80
2019-01-27T09:19:15.144Z,98306.92
2019-01-27T09:21:48.859Z,98298.52
2019-01-27T09:24:22.667Z,98295.65
2019-01-27T09:26:56.473Z,98301.44
2019-01-27T09:29:27.600Z,98293.03
2019-01-27T09:32:01.411Z,98294.22
2019-01-27T09:34:41.283Z,98289.89
2019-01-27T09:37:28.758Z,98281.98
2019-01-27T09:40:14.491Z,98276.83
2019-01-27T09:42:46.251Z,98283.66
2019-01-27T09:45:17.908Z,98273.32
2019-01-27T09:48:04.165Z,98273.41
2019-01-27T09:50:35.255Z,98268.56
2019-01-27T09:53:12.144Z,98263.90
2019-01-27T09:55:51.948Z,98263.30
2019-01-27T09:58:26.004Z,98271.30
2019-01-27T10:01:02.615Z,98275.64
2019-01-27T10:03:45.700Z,98265.38
2019-01-27T10:06:22.952Z,98260.11
2019-01-27T10:09:06.061Z,98272.53
2019-01-27T10:11:37.180Z,98259.07
2019-01-27T10:14:08.522Z,98257.09
2019-01-27T10:16:39.855Z,98249.03
2019-01-27T10:19:16.668Z,98250.46
2019-01-27T10:21:50.326Z,98245.41
2019-01-27T10:24:21.451Z,98249.55
2019-01-27T10:26:52.563Z,98250.57
2019-01-27T10:29:29.368Z,98241.46
2019-01-27T10:32:16.440Z,98236.62
2019-01-27T10:34:59.522Z,98240.61
2019-01-27T10:37:30.927Z,98236.29
2019-01-27T10:40:09.155Z,98228.00
2019-01-27T10:42:37.355Z,98241.46
2019-01-27T10:45:20.238Z,98227.89
2019-01-27T10:47:53.771Z,98221.56
2019-01-27T10:50:28.410Z,98216.83
2019-01-27T10:52:59.547Z,98211.02
2019-01-27T10:55:33.793Z,98210.20
2019-01-27T10:58:21.205Z,98205.37
2019-01-27T11:00:52.398Z,98217.59
2019-01-27T11:03:23.600Z,98197.03
2019-01-27T11:06:11.740Z,98198.09
2019-01-27T11:08:59.370Z,98193.13
2019-01-27T11:11:31.029Z,98192.83
2019-01-27T11:14:04.719Z,98188.23
2019-01-27T11:16:38.816Z,98187.64
2019-01-27T11:19:09.958Z,98181.91
2019-01-27T11:21:41.613Z,98181.12
2019-01-27T11:24:22.472Z,98177.14
2019-01-27T11:26:59.895Z,98174.31
2019-01-27T11:29:46.227Z,98169.81
2019-01-27T11:32:27.017Z,98163.24
2019-01-27T11:35:12.984Z,98156.73
2019-01-27T11:37:44.098Z,98157.21
2019-01-27T11:40:18.350Z,98145.75
2019-01-27T11:42:49.907Z,98147.13
2019-01-27T11:45:25.004Z,98152.58
2019-01-27T11:48:13.864Z,98143.98
2019-01-27T11:50:44.981Z,98135.32
2019-01-27T11:53:14.483Z,98131.40
2019-01-27T11:55:43.987Z,98134.66
2019-01-27T11:58:13.451Z,98133.57
2019-01-27T12:00:44.395Z,98133.45
2019-01-27T12:03:13.994Z,98128.43
2019-01-27T12:05:43.479Z,98128.22
2019-01-27T12:08:12.971Z,98114.56
2019-01-27T12:10:42.553Z,98112.03
2019-01-27T12:13:12.006Z,98116.08
2019-01-27T12:15:41.489Z,98110.16
2019-01-27T12:18:11.011Z,98107.42
2019-01-27T12:20:40.511Z,98102.59
2019-01-27T12:23:09.948Z,98105.41
2019-01-27T12:25:39.974Z,98100.19
2019-01-27T12:28:09.800Z,98101.89
2019-01-27T12:30:39.286Z,98096.63
2019-01-27T12:33:08.784Z,98093.55
2019-01-27T12:35:38.271Z,98099.06
2019-01-27T12:38:07.753Z,98102.98
2019-01-27T12:40:37.358Z,98095.19
2019-01-27T12:43:06.833Z,98090.48
2019-01-27T12:45:36.401Z,98098.67
2019-01-27T12:48:06.288Z,98101.28
2019-01-27T12:50:35.862Z,98100.55
2019-01-27T12:53:05.471Z,98090.47
2019-01-27T12:55:34.975Z,98087.83
2019-01-27T12:58:05.005Z,98091.52
2019-01-27T13:00:42.356Z,98081.95
2019-01-27T13:03:11.914Z,98080.28
2019-01-27T13:05:41.452Z,98082.59
2019-01-27T13:08:11.025Z,98079.98
2019-01-27T13:10:40.581Z,98065.64
2019-01-27T13:13:12.165Z,98066.63
2019-01-27T13:15:41.878Z,98072.37
2019-01-27T13:18:11.397Z,98078.70
2019-01-27T13:20:41.017Z,98067.61
2019-01-27T13:23:10.549Z,98076.04
2019-01-27T13:25:40.024Z,98065.86
2019-01-27T13:28:09.517Z,98069.52
2019-01-27T13:30:39.644Z,98062.81
2019-01-27T13:33:09.164Z,98062.45
2019-01-27T13:35:38.989Z,98055.83
2019-01-27T13:38:08.778Z,98067.13
2019-01-27T13:40:38.306Z,98062.57
2019-01-27T13:43:08.352Z,98060.52
2019-01-27T13:45:37.823Z,98057.63
2019-01-27T13:48:07.373Z,98055.57
2019-01-27T13:50:36.906Z,98058.30
2019-01-27T13:53:07.275Z,98063.45
2019-01-27T13:55:36.776Z,98073.34
2019-01-27T13:58:06.583Z,98058.14
2019-01-27T14:00:42.587Z,98059.67
2019-01-27T14:03:12.146Z,98054.97
2019-01-27T14:05:41.731Z,98056.09
2019-01-27T14:08:11.842Z,98058.16
2019-01-27T14:10:41.339Z,98054.72
2019-01-27T14:13:10.827Z,98057.16
2019-01-27T14:15:41.224Z,98050.33
2019-01-27T14:18:11.137Z,98045.16
2019-01-27T14:20:40.679Z,98038.70
2019-01-27T14:23:10.556Z,98044.02
2019-01-27T14:25:40.033Z,98045.59
2019-01-27T14:28:09.528Z,98042.42
2019-01-27T14:30:45.365Z,98044.90
2019-01-27T14:33:14.842Z,98045.90
2019-01-27T14:35:44.321Z,98044.63
2019-01-27T14:38:13.857Z,98043.28
2019-01-27T14:40:43.323Z,98036.86
2019-01-27T14:43:12.826Z,98041.42
2019-01-27T14:45:42.382Z,98044.81
2019-01-27T14:48:11.855Z,98036.11
2019-01-27T14:50:46.018Z,98050.25
2019-01-27T14:53:15.845Z,98036.12
2019-01-27T14:55:45.397Z,98048.81
2019-01-27T14:58:14.966Z,98042.68
2019-01-27T15:00:46.085Z,98047.95
2019-01-27T15:03:16.536Z,98048.64
2019-01-27T15:05:45.985Z,98051.42
2019-01-27T15:08:15.520Z,98036.90
2019-01-27T15:10:45.462Z,98044.13
2019-01-27T15:13:15.034Z,98049.08
2019-01-27T15:15:44.689Z,98049.37
2019-01-27T15:18:14.173Z,98053.02
2019-01-27T15:21:03.167Z,98049.80
2019-01-27T15:23:33.291Z,98052.88
2019-01-27T15:26:03.120Z,98049.53
2019-01-27T15:28:32.652Z,98058.14
2019-01-27T15:31:02.121Z,98056.30
2019-01-27T15:33:31.591Z,98055.13
2019-01-27T15:36:01.133Z,98058.34
2019-01-27T15:38:30.601Z,98054.03
2019-01-27T15:41:00.082Z,98056.34
2019-01-27T15:43:29.594Z,98059.56
2019-01-27T15:45:59.045Z,98061.78
2019-01-27T15:48:28.527Z,98064.64
2019-01-27T15:50:59.642Z,98061.98
2019-01-27T15:53:29.798Z,98054.56
2019-01-27T15:55:59.445Z,98065.69
2019-01-27T15:58:29.057Z,98063.98
2019-01-27T16:00:58.630Z,98062.92
2019-01-27T16:03:28.533Z,98063.84
2019-01-27T16:05:58.023Z,98062.24
2019-01-27T16:08:27.523Z,98066.78
2019-01-27T16:10:57.065Z,98071.68
2019-01-27T16:13:26.639Z,98075.05
2019-01-27T16:15:56.158Z,98066.97
2019-01-27T16:18:25.633Z,98069.17
2019-01-27T16:20:55.233Z,98071.19
2019-01-27T16:23:29.994Z,98072.23
2019-01-27T16:26:00.887Z,98073.30
2019-01-27T16:28:30.369Z,98071.63
2019-01-27T16:31:07.198Z,98071.38
2019-01-27T16:33:44.044Z,98075.91
2019-01-27T16:36:13.691Z,98073.15
2019-01-27T16:38:43.180Z,98078.70
2019-01-27T16:41:12.727Z,98078.23
2019-01-27T16:43:42.211Z,98077.26
2019-01-27T16:46:11.695Z,98073.36
2019-01-27T16:48:41.181Z,98085.48
2019-01-27T16:51:10.681Z,98071.92
2019-01-27T16:53:40.648Z,98079.52
2019-01-27T16:56:10.150Z,98070.42
2019-01-27T16:58:39.784Z,98080.83
2019-01-27T17:01:09.660Z,98082.70
2019-01-27T17:03:39.144Z,98075.94
2019-01-27T17:06:08.778Z,98073.15
2019-01-27T17:08:38.243Z,98069.02
2019-01-27T17:11:07.775Z,98073.05
2019-01-27T17:13:37.378Z,98074.09
2019-01-27T17:16:07.258Z,98073.78
2019-01-27T17:18:37.145Z,98078.66
2019-01-27T17:21:07.300Z,98070.83
2019-01-27T17:23:36.792Z,98076.05
2019-01-27T17:26:06.540Z,98082.06
2019-01-27T17:28:36.056Z,98074.63
2019-01-27T17:31:05.743Z,98076.70
2019-01-27T17:33:35.247Z,98077.56
2019-01-27T17:36:04.815Z,98080.75
2019-01-27T17:38:40.383Z,98073.42
2019-01-27T17:41:05.592Z,98078.33
2019-01-27T17:43:35.598Z,98083.31
2019-01-27T17:46:05.524Z,98083.31
2019-01-27T17:48:35.020Z,98083.56
2019-01-27T17:51:04.804Z,98078.14
2019-01-27T17:53:35.948Z,98083.59
2019-01-27T17:56:05.689Z,98083.11
2019-01-27T17:58:54.328Z,98085.41
2019-01-27T18:01:30.654Z,98078.75
2019-01-27T18:04:01.814Z,98078.91
2019-01-27T18:06:33.001Z,98078.54
2019-01-27T18:09:16.015Z,98079.89
2019-01-27T18:11:52.615Z,98081.78
2019-01-27T18:14:24.021Z,98078.63
2019-01-27T18:16:53.505Z,98078.23
2019-01-27T18:19:23.009Z,98078.84
2019-01-27T18:21:52.532Z,98082.27
2019-01-27T18:24:22.029Z,98077.66
2019-01-27T18:26:51.528Z,98084.27
2019-01-27T18:29:21.061Z,98074.09
2019-01-27T18:31:50.596Z,98082.17
2019-01-27T18:34:20.048Z,98079.03
2019-01-27T18:36:49.604Z,98086.66
2019-01-27T18:39:19.125Z,98095.56
2019-01-27T18:41:48.566Z,98086.45
2019-01-27T18:44:18.099Z,98095.70
2019-01-27T18:46:47.648Z,98095.36
2019-01-27T18:49:17.125Z,98100.07
2019-01-27T18:51:46.678Z,98098.22
2019-01-27T18:54:34.151Z,98100.42
2019-01-27T18:57:07.775Z,98099.79
2019-01-27T18:59:44.682Z,98106.41
2019-01-27T19:02:27.358Z,98106.59
2019-01-27T19:04:58.519Z,98108.91
2019-01-27T19:07:29.689Z,98112.02
2019-01-27T19:10:01.197Z,98118.19
2019-01-27T19:12:34.866Z,98105.68
2019-01-27T19:15:16.302Z,98113.14
2019-01-27T19:17:52.994Z,98117.16
2019-01-27T19:20:30.085Z,98120.00
2019-01-27T19:23:17.428Z,98125.07
2019-01-27T19:25:54.591Z,98125.58
2019-01-27T19:28:31.161Z,98124.14
2019-01-27T19:31:03.095Z,98123.71
2019-01-27T19:33:37.905Z,98126.61
2019-01-27T19:36:09.336Z,98136.09
2019-01-27T19:38:43.654Z,98129.58
2019-01-27T19:44:19.161Z,98131.39
2019-01-27T19:46:56.200Z,98137.92
2019-01-27T19:49:30.101Z,98135.19
2019-01-27T19:52:13.244Z,98138.67
2019-01-27T19:54:54.501Z,98139.44
2019-01-27T19:57:34.855Z,98144.50
2019-01-27T20:00:10.431Z,98142.72
2019-01-27T20:02:48.246Z,98153.97
2019-01-27T20:05:35.677Z,98158.03
2019-01-27T20:08:09.786Z,98157.92
2019-01-27T20:10:40.911Z,98163.83
2019-01-27T20:13:15.142Z,98161.59
2019-01-27T20:15:46.341Z,98169.98
2019-01-27T20:18:17.484Z,98173.31
2019-01-27T20:20:55.148Z,98175.67
2019-01-27T20:23:32.208Z,98178.05
2019-01-27T20:26:06.204Z,98175.55
2019-01-27T20:28:45.886Z,98174.95
2019-01-27T20:31:33.317Z,98179.52
2019-01-27T20:34:04.472Z,98182.31
2019-01-27T20:36:44.690Z,98183.23
2019-01-27T20:39:18.303Z,98187.19
2019-01-27T20:41:49.472Z,98199.19
2019-01-27T20:44:35.633Z,98199.59
2019-01-27T20:47:06.857Z,98203.84
2019-01-27T20:49:41.450Z,98209.05
2019-01-27T20:52:25.433Z,98202.83
2019-01-27T20:54:59.448Z,98206.80
2019-01-27T20:57:30.597Z,98208.63
2019-01-27T21:00:01.766Z,98204.94
2019-01-27T21:02:36.019Z,98203.09
2019-01-27T21:05:09.900Z,98208.45
2019-01-27T21:07:47.023Z,98213.12
2019-01-27T21:10:27.600Z,98217.28
2019-01-27T21:13:05.087Z,98224.64
2019-01-27T21:15:44.019Z,98224.34
2019-01-27T21:18:12.312Z,98232.45
2019-01-27T21:20:42.080Z,98240.62
2019-01-27T21:23:13.061Z,98239.52
2019-01-27T21:25:42.586Z,98245.55
2019-01-27T21:28:12.318Z,98253.44
2019-01-27T21:30:41.973Z,98251.59
2019-01-27T21:33:11.954Z,98261.77
2019-01-27T21:35:41.464Z,98256.17
2019-01-27T21:38:10.932Z,98268.09
2019-01-27T21:40:40.416Z,98265.72
2019-01-27T21:43:10.202Z,98269.35
2019-01-27T21:45:39.681Z,98276.50
2019-01-27T21:48:09.213Z,98274.19
2019-01-27T21:50:38.692Z,98281.86
2019-01-27T21:53:08.295Z,98284.97
2019-01-27T21:55:37.920Z,98295.84
2019-01-27T21:58:07.380Z,98290.88
2019-01-27T22:00:36.859Z,98298.03
2019-01-27T22:03:06.532Z,98298.84
2019-01-27T22:05:36.074Z,98294.17
2019-01-27T22:08:05.653Z,98299.89
2019-01-27T22:10:35.183Z,98304.03
2019-01-27T22:13:04.867Z,98305.91
2019-01-27T22:15:34.359Z,98313.16
2019-01-27T22:18:04.520Z,98316.37
2019-01-27T22:20:34.008Z,98322.38
2019-01-27T22:23:03.570Z,98327.59
2019-01-27T22:25:33.220Z,98337.85
2019-01-27T22:28:02.711Z,98329.94
2019-01-27T22:30:32.201Z,98331.19
2019-01-27T22:33:01.698Z,98336.88
2019-01-27T22:35:31.221Z,98342.42
2019-01-27T22:38:00.870Z,98339.13
2019-01-27T22:40:30.665Z,98343.73
2019-01-27T22:43:00.172Z,98347.16
2019-01-27T22:45:29.677Z,98351.33
2019-01-27T22:47:59.734Z,98347.19
2019-01-27T22:50:29.279Z,98345.19
2019-01-27T22:52:59.157Z,98348.94
2019-01-27T22:55:28.691Z,98354.67
2019-01-27T22:57:58.161Z,98352.50
2019-01-27T23:00:42.382Z,98361.09
2019-01-27T23:03:11.893Z,98363.69
2019-01-27T23:05:41.391Z,98370.56
2019-01-27T23:08:10.882Z,98374.75
2019-01-27T23:10:40.784Z,98380.73
2019-01-27T23:13:10.271Z,98375.91
2019-01-27T23:15:39.798Z,98373.32
2019-01-27T23:18:09.302Z,98380.48
2019-01-27T23:20:38.794Z,98391.38
2019-01-27T23:23:08.846Z,98393.17
2019-01-27T23:25:38.329Z,98392.89
2019-01-27T23:28:07.822Z,98390.05
2019-01-27T23:30:37.379Z,98391.73
2019-01-27T23:33:07.552Z,98393.03
2019-01-27T23:35:37.149Z,98396.94
2019-01-27T23:38:06.877Z,98392.77
2019-01-27T23:40:36.358Z,98395.75
2019-01-27T23:43:05.838Z,98394.52
2019-01-27T23:45:35.468Z,98398.16
2019-01-27T23:48:05.021Z,98407.77
2019-01-27T23:50:34.508Z,98405.27
2019-01-27T23:53:05.641Z,98414.27
2019-01-27T23:55:35.691Z,98406.98
2019-01-27T23:58:05.334Z,98412.75
